Time;durP1;ratioP1;P1;durP2;ratioP2;P2;SDS_P1;SDS_P2;PMS_P1;PMS_P2;Temp;Humidity;BMP_temperature;BMP_pressure;BME280_temperature;BME280_humidity;BME280_pressure;Samples;Min_cycle;Max_cycle;Signal;HPM_P1;HPM_P2
2023/07/19 00:04:04;;;;;;;5.13;2.77;;;;;;;;;;13045180;22;20423;-78
2023/07/19 00:09:07;;;;;;;6.40;3.20;;;;;;;;;;13043764;22;20748;-78
2023/07/19 00:14:10;;;;;;;6.38;3.30;;;;;;;;;;13043157;22;20377;-78
2023/07/19 00:19:12;;;;;;;5.28;3.40;;;;;;;;;;13043627;22;20451;-78
2023/07/19 00:24:16;;;;;;;4.60;3.20;;;;;;;;;;13043809;22;20365;-78
2023/07/19 00:29:18;;;;;;;4.73;3.40;;;;;;;;;;13043680;22;20418;-78
2023/07/19 00:34:21;;;;;;;6.57;3.17;;;;;;;;;;13043033;22;20845;-78
2023/07/19 00:39:24;;;;;;;4.33;2.80;;;;;;;;;;13038301;22;20430;-78
2023/07/19 00:44:27;;;;;;;7.20;3.33;;;;;;;;;;13042253;22;20914;-78
2023/07/19 00:49:30;;;;;;;6.35;3.33;;;;;;;;;;12990142;22;20712;-81
2023/07/19 00:54:33;;;;;;;8.50;3.33;;;;;;;;;;12914957;22;20430;-81
2023/07/19 00:59:36;;;;;;;7.35;3.58;;;;;;;;;;12916117;22;20821;-81
2023/07/19 01:04:38;;;;;;;6.10;3.80;;;;;;;;;;12915125;22;20418;-80
2023/07/19 01:09:42;;;;;;;7.93;4.13;;;;;;;;;;12916075;22;20840;-81
2023/07/19 01:14:44;;;;;;;7.85;4.45;;;;;;;;;;12918924;22;20376;-81
2023/07/19 01:19:47;;;;;;;8.32;4.38;;;;;;;;;;12918701;22;20369;-80
2023/07/19 01:24:50;;;;;;;5.82;3.60;;;;;;;;;;12920076;22;20438;-81
2023/07/19 01:29:53;;;;;;;7.17;3.80;;;;;;;;;;12920368;22;20364;-80
2023/07/19 01:34:55;;;;;;;7.38;4.45;;;;;;;;;;12919082;22;20388;-82
2023/07/19 01:40:01;;;;;;;6.70;4.30;;;;;;;;;;12919202;22;20390;-79
2023/07/19 01:45:04;;;;;;;8.32;4.57;;;;;;;;;;12920011;22;20443;-79
2023/07/19 01:50:07;;;;;;;8.02;4.53;;;;;;;;;;12918848;22;20422;-79
2023/07/19 01:55:11;;;;;;;6.05;4.10;;;;;;;;;;12919098;22;20380;-80
2023/07/19 02:00:14;;;;;;;6.87;4.30;;;;;;;;;;12919729;22;20360;-82
2023/07/19 02:05:17;;;;;;;7.53;4.47;;;;;;;;;;12919041;22;20464;-81
2023/07/19 02:10:21;;;;;;;7.63;4.00;;;;;;;;;;12918872;22;20356;-81
2023/07/19 02:15:23;;;;;;;8.18;4.55;;;;;;;;;;12918688;22;20868;-81
2023/07/19 02:20:26;;;;;;;8.93;4.63;;;;;;;;;;12917978;22;20376;-81
2023/07/19 02:25:29;;;;;;;9.07;5.70;;;;;;;;;;12917608;22;20698;-82
2023/07/19 02:30:32;;;;;;;6.50;4.67;;;;;;;;;;12919821;22;20833;-81
2023/07/19 02:35:34;;;;;;;6.78;5.10;;;;;;;;;;12918214;22;20380;-81
2023/07/19 02:40:38;;;;;;;8.80;5.00;;;;;;;;;;12918039;22;20360;-81
2023/07/19 02:45:40;;;;;;;8.50;5.07;;;;;;;;;;12919415;22;20368;-81
2023/07/19 02:50:46;;;;;;;8.10;4.55;;;;;;;;;;12917658;22;20360;-81
2023/07/19 02:55:49;;;;;;;6.18;4.18;;;;;;;;;;12917728;22;20388;-81
2023/07/19 03:00:53;;;;;;;8.83;4.73;;;;;;;;;;12918627;22;20418;-81
2023/07/19 03:05:56;;;;;;;5.75;3.80;;;;;;;;;;12917456;22;20407;-81
2023/07/19 03:10:59;;;;;;;6.63;4.07;;;;;;;;;;12917721;22;20372;-81
2023/07/19 03:16:02;;;;;;;5.78;3.40;;;;;;;;;;12918209;22;20388;-81
2023/07/19 03:21:04;;;;;;;5.70;3.22;;;;;;;;;;12917341;22;20368;-81
2023/07/19 03:26:09;;;;;;;7.00;3.30;;;;;;;;;;12917288;22;20758;-81
2023/07/19 03:31:12;;;;;;;5.03;3.17;;;;;;;;;;12916944;22;20426;-81
2023/07/19 03:36:14;;;;;;;6.72;3.30;;;;;;;;;;12916649;22;20454;-81
2023/07/19 03:41:18;;;;;;;11.48;4.72;;;;;;;;;;12916538;22;20368;-81
2023/07/19 03:46:20;;;;;;;7.80;3.77;;;;;;;;;;12918097;22;20615;-81
2023/07/19 03:51:23;;;;;;;5.30;3.60;;;;;;;;;;12916168;22;20384;-81
2023/07/19 03:56:26;;;;;;;7.20;3.90;;;;;;;;;;12917020;22;20384;-81
2023/07/19 04:01:29;;;;;;;6.50;4.00;;;;;;;;;;12917166;22;20426;-80
2023/07/19 04:06:31;;;;;;;6.05;3.85;;;;;;;;;;12915668;22;20360;-81
2023/07/19 04:11:35;;;;;;;7.33;4.00;;;;;;;;;;12915994;22;20364;-81
2023/07/19 04:16:37;;;;;;;6.10;3.45;;;;;;;;;;12916478;22;20388;-81
2023/07/19 04:21:40;;;;;;;5.70;3.20;;;;;;;;;;12916901;22;20419;-81
2023/07/19 04:26:43;;;;;;;6.47;3.73;;;;;;;;;;12915710;22;20851;-82
2023/07/19 04:31:46;;;;;;;6.10;3.80;;;;;;;;;;12916205;22;20368;-81
2023/07/19 04:36:48;;;;;;;7.82;3.50;;;;;;;;;;12915757;22;20380;-81
2023/07/19 04:41:52;;;;;;;7.28;3.17;;;;;;;;;;12915096;22;20434;-80
2023/07/19 04:46:54;;;;;;;5.53;2.97;;;;;;;;;;12916327;22;20361;-81
2023/07/19 04:51:56;;;;;;;6.82;3.15;;;;;;;;;;12915513;22;20411;-81
2023/07/19 04:57:00;;;;;;;6.22;2.95;;;;;;;;;;12915438;22;20392;-81
2023/07/19 05:02:03;;;;;;;5.95;3.65;;;;;;;;;;12915681;22;20452;-81
2023/07/19 05:07:05;;;;;;;7.22;3.40;;;;;;;;;;12915783;22;20688;-81
2023/07/19 05:12:10;;;;;;;7.45;3.42;;;;;;;;;;12913989;22;20909;-81
2023/07/19 05:17:13;;;;;;;5.72;3.53;;;;;;;;;;12914069;22;20384;-81
2023/07/19 05:22:15;;;;;;;5.83;3.17;;;;;;;;;;12914959;22;20364;-81
2023/07/19 05:27:19;;;;;;;7.10;3.70;;;;;;;;;;12913206;22;20368;-81
2023/07/19 05:32:21;;;;;;;6.73;2.80;;;;;;;;;;12912310;22;20372;-81
2023/07/19 05:37:24;;;;;;;5.43;3.40;;;;;;;;;;12913155;22;20388;-81
2023/07/19 05:42:27;;;;;;;5.47;3.28;;;;;;;;;;12913985;22;20368;-81
2023/07/19 05:47:30;;;;;;;8.63;3.05;;;;;;;;;;12912120;22;20504;-80
2023/07/19 05:52:32;;;;;;;6.07;3.50;;;;;;;;;;12909443;22;20368;-80
2023/07/19 05:57:36;;;;;;;5.50;3.10;;;;;;;;;;12906717;22;20631;-81
2023/07/19 06:02:38;;;;;;;6.90;3.10;;;;;;;;;;12918487;22;20399;-81
2023/07/19 06:07:40;;;;;;;8.95;3.30;;;;;;;;;;12918766;22;20422;-81
2023/07/19 06:12:46;;;;;;;5.07;3.00;;;;;;;;;;12918009;22;20915;-80
2023/07/19 06:17:48;;;;;;;5.40;3.20;;;;;;;;;;12918638;22;20384;-80
2023/07/19 06:22:50;;;;;;;6.30;3.70;;;;;;;;;;12918704;22;20356;-81
2023/07/19 06:27:54;;;;;;;5.90;3.63;;;;;;;;;;12916940;22;20419;-81
2023/07/19 06:32:56;;;;;;;5.15;3.60;;;;;;;;;;12918483;22;20368;-80
2023/07/19 06:37:59;;;;;;;6.57;3.57;;;;;;;;;;12918128;22;20380;-80
2023/07/19 06:43:04;;;;;;;8.17;4.90;;;;;;;;;;12917679;22;20832;-79
2023/07/19 06:48:07;;;;;;;5.37;3.60;;;;;;;;;;12917734;22;20708;-79
2023/07/19 06:53:09;;;;;;;7.03;3.88;;;;;;;;;;12918158;22;20364;-79
2023/07/19 06:58:12;;;;;;;5.75;3.78;;;;;;;;;;12916887;22;20380;-81
2023/07/19 07:03:15;;;;;;;8.52;4.30;;;;;;;;;;12917674;22;20462;-79
2023/07/19 07:08:17;;;;;;;8.17;4.07;;;;;;;;;;12916952;22;20389;-81
2023/07/19 07:13:21;;;;;;;7.00;3.50;;;;;;;;;;12917077;22;20365;-79
2023/07/19 07:18:24;;;;;;;5.07;3.67;;;;;;;;;;12917263;22;20856;-81
2023/07/19 07:23:26;;;;;;;6.20;3.63;;;;;;;;;;12917570;22;20356;-79
2023/07/19 07:28:30;;;;;;;6.27;3.17;;;;;;;;;;12916845;22;20449;-82
2023/07/19 07:33:32;;;;;;;6.13;3.88;;;;;;;;;;12916219;22;20372;-81
2023/07/19 07:38:35;;;;;;;6.07;3.70;;;;;;;;;;12915668;22;20430;-80
2023/07/19 07:43:39;;;;;;;5.50;3.73;;;;;;;;;;12915677;22;20365;-80
2023/07/19 07:48:41;;;;;;;7.70;3.55;;;;;;;;;;12916225;22;20364;-79
2023/07/19 07:53:43;;;;;;;7.25;3.83;;;;;;;;;;12915496;22;20395;-79
2023/07/19 07:58:47;;;;;;;6.00;3.78;;;;;;;;;;12915472;22;20385;-81
2023/07/19 08:03:49;;;;;;;5.10;3.70;;;;;;;;;;12916185;22;20391;-82
2023/07/19 08:08:52;;;;;;;7.77;4.40;;;;;;;;;;12915149;22;20372;-81
2023/07/19 08:13:55;;;;;;;7.50;4.40;;;;;;;;;;12916652;22;20368;-81
2023/07/19 08:18:58;;;;;;;6.90;4.20;;;;;;;;;;12915282;22;20388;-81
2023/07/19 08:24:00;;;;;;;6.40;4.22;;;;;;;;;;12913984;22;20369;-78
2023/07/19 08:29:04;;;;;;;7.55;4.20;;;;;;;;;;12915379;22;20426;-80
2023/07/19 08:34:06;;;;;;;5.65;3.90;;;;;;;;;;12913447;22;20430;-80
2023/07/19 08:39:08;;;;;;;7.28;3.90;;;;;;;;;;12913365;22;20413;-80
2023/07/19 08:44:12;;;;;;;5.43;3.90;;;;;;;;;;12910862;22;20365;-81
2023/07/19 08:49:17;;;;;;;7.97;4.10;;;;;;;;;;12913220;22;20856;-81
2023/07/19 08:54:19;;;;;;;7.32;4.00;;;;;;;;;;12913329;22;20414;-80
2023/07/19 08:59:23;;;;;;;6.77;4.47;;;;;;;;;;12913082;22;20473;-80
2023/07/19 09:04:26;;;;;;;5.85;4.40;;;;;;;;;;12913411;22;20426;-81
2023/07/19 09:09:29;;;;;;;6.47;4.18;;;;;;;;;;12912351;22;20883;-81
2023/07/19 09:14:38;;;;;;;8.27;4.72;;;;;;;;;;12914209;22;20394;-80
2023/07/19 09:19:43;;;;;;;7.90;4.30;;;;;;;;;;12914522;22;20458;-81
2023/07/19 09:24:55;;;;;;;5.97;4.50;;;;;;;;;;12913516;22;20420;-81
2023/07/19 09:29:59;;;;;;;6.82;4.60;;;;;;;;;;12914314;22;20360;-81
2023/07/19 09:35:04;;;;;;;8.05;4.93;;;;;;;;;;12917698;22;20364;-80
2023/07/19 09:40:07;;;;;;;8.82;5.00;;;;;;;;;;12917804;22;20388;-81
2023/07/19 09:45:12;;;;;;;8.57;5.38;;;;;;;;;;12917579;22;20364;-81
2023/07/19 09:50:14;;;;;;;9.82;5.20;;;;;;;;;;12917015;22;20365;-81
2023/07/19 09:55:16;;;;;;;7.07;5.57;;;;;;;;;;12917316;22;20364;-81
2023/07/19 10:00:21;;;;;;;6.88;4.95;;;;;;;;;;12918907;22;20482;-81
2023/07/19 10:05:28;;;;;;;7.22;5.35;;;;;;;;;;12917508;22;20430;-81
2023/07/19 10:10:36;;;;;;;7.63;5.50;;;;;;;;;;12917629;22;20894;-81
2023/07/19 10:15:41;;;;;;;7.80;5.25;;;;;;;;;;12917761;22;20892;-81
2023/07/19 10:20:44;;;;;;;7.53;4.90;;;;;;;;;;12916467;22;20446;-80
2023/07/19 10:25:47;;;;;;;8.87;5.30;;;;;;;;;;12917774;22;20364;-81
2023/07/19 10:30:53;;;;;;;8.38;5.45;;;;;;;;;;12916711;22;20364;-81
2023/07/19 10:35:57;;;;;;;8.65;5.00;;;;;;;;;;12917778;22;20360;-81
2023/07/19 10:41:01;;;;;;;8.05;5.63;;;;;;;;;;12916193;22;20445;-81
2023/07/19 10:46:06;;;;;;;7.97;5.37;;;;;;;;;;12916930;22;20898;-80
2023/07/19 10:51:09;;;;;;;8.07;5.50;;;;;;;;;;12916733;22;20438;-81
2023/07/19 10:56:11;;;;;;;8.63;5.63;;;;;;;;;;12916000;22;20427;-81
2023/07/19 11:01:16;;;;;;;9.67;5.37;;;;;;;;;;12915958;22;20388;-81
2023/07/19 11:06:21;;;;;;;7.28;5.97;;;;;;;;;;12916074;23;20357;-81
2023/07/19 11:11:23;;;;;;;6.68;5.15;;;;;;;;;;12915049;22;20365;-81
2023/07/19 11:16:29;;;;;;;6.70;5.47;;;;;;;;;;12916028;22;20365;-80
2023/07/19 11:21:31;;;;;;;8.07;5.45;;;;;;;;;;12916773;22;20384;-80
2023/07/19 11:26:33;;;;;;;7.07;5.40;;;;;;;;;;12915425;22;20697;-80
2023/07/19 11:31:38;;;;;;;7.43;5.13;;;;;;;;;;12916091;22;20365;-80
2023/07/19 11:36:42;;;;;;;5.75;5.10;;;;;;;;;;12911525;22;20364;-80
2023/07/19 11:41:45;;;;;;;8.32;5.28;;;;;;;;;;12906241;22;20388;-80
2023/07/19 11:46:49;;;;;;;11.18;5.30;;;;;;;;;;12906433;22;20856;-80
2023/07/19 11:51:51;;;;;;;8.43;4.93;;;;;;;;;;12909034;22;20380;-80
2023/07/19 11:56:53;;;;;;;7.93;5.35;;;;;;;;;;12906769;22;20413;-80
2023/07/19 12:01:59;;;;;;;7.68;5.03;;;;;;;;;;12904282;22;20457;-80
2023/07/19 12:07:02;;;;;;;8.10;5.40;;;;;;;;;;12906565;22;20380;-81
2023/07/19 12:12:04;;;;;;;11.70;5.13;;;;;;;;;;12904883;22;20779;-80
2023/07/19 12:17:08;;;;;;;8.17;5.33;;;;;;;;;;12909295;22;20836;-80
2023/07/19 12:22:10;;;;;;;8.27;5.20;;;;;;;;;;12909699;22;20418;-81
2023/07/19 12:27:13;;;;;;;8.23;5.50;;;;;;;;;;12910750;22;20360;-81
2023/07/19 12:32:17;;;;;;;6.80;5.30;;;;;;;;;;12913612;22;20422;-79
2023/07/19 12:37:19;;;;;;;7.20;5.20;;;;;;;;;;12913338;22;20430;-80
2023/07/19 12:42:21;;;;;;;5.80;5.15;;;;;;;;;;12913590;22;20365;-80
2023/07/19 12:47:25;;;;;;;12.32;5.75;;;;;;;;;;12913963;22;20455;-80
2023/07/19 12:52:27;;;;;;;8.07;5.50;;;;;;;;;;12913959;22;20434;-80
2023/07/19 12:57:30;;;;;;;11.10;6.20;;;;;;;;;;12914565;22;20499;-80
2023/07/19 13:02:34;;;;;;;9.32;5.25;;;;;;;;;;12915034;22;20365;-80
2023/07/19 13:07:36;;;;;;;7.45;5.68;;;;;;;;;;12913404;22;20368;-80
2023/07/19 13:12:38;;;;;;;8.30;6.07;;;;;;;;;;12912876;22;20450;-80
2023/07/19 13:17:43;;;;;;;9.00;5.55;;;;;;;;;;12912539;22;21115;-79
2023/07/19 13:22:45;;;;;;;6.30;5.50;;;;;;;;;;12913594;22;20410;-80
2023/07/19 13:27:47;;;;;;;8.43;5.60;;;;;;;;;;12914004;22;20356;-79
2023/07/19 13:32:51;;;;;;;7.82;5.60;;;;;;;;;;12912960;22;20364;-80
2023/07/19 13:37:53;;;;;;;8.68;5.45;;;;;;;;;;12913884;22;20411;-80
2023/07/19 13:42:56;;;;;;;9.73;5.78;;;;;;;;;;12913540;22;20368;-79
2023/07/19 13:48:00;;;;;;;6.90;5.83;;;;;;;;;;12915374;22;20728;-79
2023/07/19 13:53:03;;;;;;;7.53;5.50;;;;;;;;;;12914703;22;20426;-80
2023/07/19 13:58:07;;;;;;;8.70;5.70;;;;;;;;;;12913502;22;20437;-79
2023/07/19 14:03:11;;;;;;;11.40;6.30;;;;;;;;;;12914395;22;20445;-79
2023/07/19 14:08:13;;;;;;;6.30;5.00;;;;;;;;;;12914293;22;20446;-79
2023/07/19 14:13:16;;;;;;;9.17;5.53;;;;;;;;;;12914553;22;20372;-80
2023/07/19 14:18:19;;;;;;;9.57;5.45;;;;;;;;;;12913357;22;20701;-79
2023/07/19 14:23:22;;;;;;;9.05;5.50;;;;;;;;;;12917276;22;20368;-80
2023/07/19 14:28:24;;;;;;;7.38;5.63;;;;;;;;;;12912610;22;21108;-78
2023/07/19 14:33:29;;;;;;;8.83;5.50;;;;;;;;;;12911573;22;20372;-79
2023/07/19 14:38:31;;;;;;;7.35;5.60;;;;;;;;;;12911296;22;20868;-79
2023/07/19 14:43:33;;;;;;;10.57;5.67;;;;;;;;;;12911610;22;20832;-79
2023/07/19 14:48:37;;;;;;;9.70;5.50;;;;;;;;;;12911781;22;20434;-79
2023/07/19 14:53:39;;;;;;;6.45;5.03;;;;;;;;;;12911139;22;20361;-79
2023/07/19 14:58:42;;;;;;;9.43;5.53;;;;;;;;;;12911759;22;20388;-79
2023/07/19 15:03:45;;;;;;;8.80;5.90;;;;;;;;;;12912200;22;20422;-79
2023/07/19 15:08:48;;;;;;;8.95;6.03;;;;;;;;;;12912073;22;20361;-80
2023/07/19 15:13:51;;;;;;;8.13;5.73;;;;;;;;;;12911611;22;20360;-80
2023/07/19 15:18:54;;;;;;;12.47;6.20;;;;;;;;;;12912647;22;20377;-79
2023/07/19 15:23:57;;;;;;;7.80;6.00;;;;;;;;;;12910907;22;20747;-79
2023/07/19 15:28:59;;;;;;;7.30;5.65;;;;;;;;;;12910340;22;20364;-80
2023/07/19 15:34:03;;;;;;;8.37;5.87;;;;;;;;;;12911679;22;20372;-80
2023/07/19 15:39:06;;;;;;;9.70;6.40;;;;;;;;;;12911412;22;20956;-80
2023/07/19 15:44:11;;;;;;;9.20;6.43;;;;;;;;;;12911517;22;20438;-80
2023/07/19 15:49:15;;;;;;;8.27;6.20;;;;;;;;;;12911360;22;20852;-80
2023/07/19 15:54:17;;;;;;;10.80;7.15;;;;;;;;;;12910732;22;20412;-82
2023/07/19 15:59:19;;;;;;;8.37;5.67;;;;;;;;;;12908977;22;20434;-82
2023/07/19 16:04:23;;;;;;;9.05;6.60;;;;;;;;;;12900922;22;20376;-82
2023/07/19 16:09:25;;;;;;;8.88;6.18;;;;;;;;;;12902534;22;20434;-81
2023/07/19 16:14:28;;;;;;;9.57;6.90;;;;;;;;;;12903108;22;20380;-82
2023/07/19 16:19:31;;;;;;;7.68;6.50;;;;;;;;;;12901143;22;20392;-82
2023/07/19 16:24:34;;;;;;;9.38;5.40;;;;;;;;;;12903143;22;20376;-82
2023/07/19 16:29:36;;;;;;;8.63;5.47;;;;;;;;;;12901901;22;20380;-82
2023/07/19 16:34:40;;;;;;;9.43;5.72;;;;;;;;;;12902066;22;20376;-81
2023/07/19 16:39:42;;;;;;;7.75;5.30;;;;;;;;;;12902491;22;20384;-82
2023/07/19 16:44:45;;;;;;;11.32;6.00;;;;;;;;;;12902407;22;20365;-82
2023/07/19 16:49:48;;;;;;;8.33;5.17;;;;;;;;;;12899444;22;20701;-81
2023/07/19 16:54:51;;;;;;;8.70;5.57;;;;;;;;;;12900266;22;20391;-81
2023/07/19 16:59:53;;;;;;;8.73;6.35;;;;;;;;;;12899616;22;20389;-81
2023/07/19 17:04:56;;;;;;;9.65;6.72;;;;;;;;;;12901112;22;20836;-81
2023/07/19 17:09:59;;;;;;;8.50;5.82;;;;;;;;;;12898357;22;20377;-81
2023/07/19 17:15:01;;;;;;;8.17;7.10;;;;;;;;;;12900157;22;20378;-81
2023/07/19 17:20:06;;;;;;;9.75;6.60;;;;;;;;;;12899525;22;20928;-82
2023/07/19 17:25:09;;;;;;;9.47;6.83;;;;;;;;;;12896727;22;20380;-82
2023/07/19 17:30:13;;;;;;;9.10;6.22;;;;;;;;;;12914484;22;20447;-82
2023/07/19 17:35:17;;;;;;;8.77;6.57;;;;;;;;;;12897943;22;20369;-82
2023/07/19 17:40:20;;;;;;;8.93;6.57;;;;;;;;;;12901023;22;20388;-81
2023/07/19 17:45:22;;;;;;;7.65;6.30;;;;;;;;;;12901394;22;20426;-81
2023/07/19 17:50:26;;;;;;;8.93;6.45;;;;;;;;;;12901545;22;20376;-79
2023/07/19 17:55:28;;;;;;;9.32;6.35;;;;;;;;;;12903482;22;20892;-80
2023/07/19 18:00:32;;;;;;;10.45;7.25;;;;;;;;;;12904393;22;20423;-79
2023/07/19 18:05:36;;;;;;;9.95;7.03;;;;;;;;;;12904351;22;20376;-80
2023/07/19 18:10:40;;;;;;;9.93;6.47;;;;;;;;;;12901867;22;20376;-80
2023/07/19 18:15:43;;;;;;;10.50;6.70;;;;;;;;;;12902852;22;20639;-80
2023/07/19 18:20:49;;;;;;;14.20;6.93;;;;;;;;;;12903919;22;20388;-80
2023/07/19 18:25:51;;;;;;;9.45;6.75;;;;;;;;;;12904123;22;20926;-80
2023/07/19 18:30:53;;;;;;;7.78;5.22;;;;;;;;;;12903650;22;20376;-81
2023/07/19 18:35:57;;;;;;;7.50;4.57;;;;;;;;;;12905006;22;20360;-82
2023/07/19 18:40:59;;;;;;;11.55;5.35;;;;;;;;;;12903519;22;20481;-80
2023/07/19 18:46:02;;;;;;;11.85;7.50;;;;;;;;;;12903821;22;20438;-80
2023/07/19 18:51:05;;;;;;;14.77;7.97;;;;;;;;;;12903351;22;20816;-81
2023/07/19 18:56:08;;;;;;;11.43;5.33;;;;;;;;;;12905649;22;20380;-90
2023/07/19 19:01:10;;;;;;;14.15;4.80;;;;;;;;;;12903055;22;20462;-79
2023/07/19 19:06:14;;;;;;;6.57;3.13;;;;;;;;;;12902104;22;20380;-78
2023/07/19 19:11:17;;;;;;;6.77;3.00;;;;;;;;;;12902667;22;20380;-80
2023/07/19 19:16:19;;;;;;;5.97;3.40;;;;;;;;;;12902337;22;20384;-79
2023/07/19 19:21:23;;;;;;;5.83;3.37;;;;;;;;;;12901006;22;20384;-78
2023/07/19 19:26:26;;;;;;;6.10;3.70;;;;;;;;;;12902322;22;20384;-79
2023/07/19 19:31:28;;;;;;;7.72;3.58;;;;;;;;;;12902007;22;20380;-80
2023/07/19 19:36:32;;;;;;;6.28;4.40;;;;;;;;;;12901628;22;20436;-79
2023/07/19 19:41:34;;;;;;;9.32;4.82;;;;;;;;;;12903100;22;20384;-79
2023/07/19 19:46:37;;;;;;;8.48;5.00;;;;;;;;;;12900810;22;20414;-79
2023/07/19 19:51:40;;;;;;;12.85;5.28;;;;;;;;;;12902451;22;20376;-79
2023/07/19 19:56:43;;;;;;;8.95;5.93;;;;;;;;;;12901929;22;20407;-79
2023/07/19 20:01:45;;;;;;;11.57;5.80;;;;;;;;;;12901353;22;20457;-79
2023/07/19 20:06:49;;;;;;;11.30;5.70;;;;;;;;;;12902632;22;20376;-78
2023/07/19 20:11:52;;;;;;;11.93;5.23;;;;;;;;;;12902242;22;20380;-79
2023/07/19 20:16:54;;;;;;;7.78;5.05;;;;;;;;;;12900997;22;20446;-79
2023/07/19 20:22:00;;;;;;;10.97;5.63;;;;;;;;;;12901711;22;20388;-79
2023/07/19 20:27:02;;;;;;;10.60;5.63;;;;;;;;;;12901440;22;20388;-79
2023/07/19 20:32:05;;;;;;;14.38;6.70;;;;;;;;;;12901332;22;20376;-79
2023/07/19 20:37:09;;;;;;;10.48;4.65;;;;;;;;;;12903498;23;20364;-79
2023/07/19 20:42:13;;;;;;;13.43;5.38;;;;;;;;;;12902700;22;20384;-79
2023/07/19 20:47:15;;;;;;;8.70;5.15;;;;;;;;;;12900751;22;20436;-78
2023/07/19 20:52:19;;;;;;;10.40;4.90;;;;;;;;;;12900895;22;20376;-79
2023/07/19 20:57:21;;;;;;;8.68;5.05;;;;;;;;;;12901686;22;20430;-78
2023/07/19 21:02:23;;;;;;;12.07;6.00;;;;;;;;;;12892152;22;20445;-79
2023/07/19 21:07:27;;;;;;;8.83;5.10;;;;;;;;;;12892848;22;20845;-79
2023/07/19 21:12:29;;;;;;;9.33;4.70;;;;;;;;;;12895765;22;20442;-78
2023/07/19 21:17:32;;;;;;;8.68;4.53;;;;;;;;;;12898276;22;20381;-78
2023/07/19 21:22:35;;;;;;;11.70;5.28;;;;;;;;;;12899580;22;20728;-79
2023/07/19 21:27:38;;;;;;;8.30;5.05;;;;;;;;;;12904166;22;20372;-79
2023/07/19 21:32:40;;;;;;;8.82;4.80;;;;;;;;;;12909701;22;20389;-79
2023/07/19 21:37:44;;;;;;;8.48;4.65;;;;;;;;;;12909859;22;20376;-79
2023/07/19 21:42:46;;;;;;;9.43;4.97;;;;;;;;;;12907111;22;20880;-79
2023/07/19 21:47:49;;;;;;;8.05;4.45;;;;;;;;;;12901380;22;20868;-79
2023/07/19 21:52:53;;;;;;;7.85;4.45;;;;;;;;;;12908842;23;20368;-79
2023/07/19 21:57:56;;;;;;;9.50;4.50;;;;;;;;;;12911110;23;20441;-79
2023/07/19 22:02:58;;;;;;;7.95;4.65;;;;;;;;;;12909977;23;20380;-78
2023/07/19 22:08:02;;;;;;;6.63;3.87;;;;;;;;;;12914621;23;20927;-81
2023/07/19 22:13:05;;;;;;;8.43;4.30;;;;;;;;;;12914965;23;20437;-80
2023/07/19 22:18:16;;;;;;;6.78;4.45;;;;;;;;;;12914869;23;20372;-80
2023/07/19 22:23:20;;;;;;;5.93;4.18;;;;;;;;;;12915013;23;20414;-80
2023/07/19 22:28:23;;;;;;;8.50;4.47;;;;;;;;;;12934902;23;20809;-78
2023/07/19 22:33:25;;;;;;;7.80;4.57;;;;;;;;;;12915456;23;20430;-78
2023/07/19 22:38:29;;;;;;;7.55;4.35;;;;;;;;;;12907512;23;20364;-78
2023/07/19 22:43:32;;;;;;;9.05;4.28;;;;;;;;;;12907775;23;20392;-78
2023/07/19 22:48:34;;;;;;;7.85;4.28;;;;;;;;;;12896523;22;20365;-79
2023/07/19 22:53:38;;;;;;;7.63;4.30;;;;;;;;;;12895015;22;20410;-78
2023/07/19 22:58:40;;;;;;;7.28;4.35;;;;;;;;;;12900188;22;20442;-80
2023/07/19 23:03:43;;;;;;;7.38;4.35;;;;;;;;;;12913535;22;20384;-80
2023/07/19 23:08:48;;;;;;;7.18;4.20;;;;;;;;;;12904740;23;20663;-79
2023/07/19 23:13:52;;;;;;;10.57;4.40;;;;;;;;;;12914726;22;20426;-80
2023/07/19 23:19:00;;;;;;;8.95;4.53;;;;;;;;;;12908263;22;20442;-79
2023/07/19 23:24:04;;;;;;;8.60;4.60;;;;;;;;;;12895513;22;20864;-79
2023/07/19 23:29:06;;;;;;;7.53;4.53;;;;;;;;;;12913493;22;20360;-80
2023/07/19 23:34:09;;;;;;;8.38;4.78;;;;;;;;;;12914978;22;20419;-79
2023/07/19 23:39:12;;;;;;;7.55;4.90;;;;;;;;;;12915964;22;20434;-80
2023/07/19 23:44:15;;;;;;;7.35;4.25;;;;;;;;;;12907435;22;20384;-80
2023/07/19 23:49:17;;;;;;;8.10;4.68;;;;;;;;;;12912142;22;20764;-80
2023/07/19 23:54:21;;;;;;;8.10;4.43;;;;;;;;;;12909632;22;20470;-80
2023/07/19 23:59:23;;;;;;;8.55;5.38;;;;;;;;;;12910078;23;20404;-80
